Latest Weather Observations for Roma

IDQ60801

Issued at 7:32 am EST Friday 20 October 2017 (issued every 30 minutes, with the page automatically refreshed every 10 minutes)

About weather observations | Map of weather stations | Latest weather observations for QLD | Other Formats
Station Details ID: 043091 Name: ROMA AIRPORT Lat: -26.55 Lon: 148.77 Height: 307.38 m
Data from the previous 72 hours. | See also: Recent months at Roma
Date/Time
EST
Temp
°C
App
Temp
°C
Dew
Point
°C
Rel
Hum
%
Delta-T
°C
Wind Press
QNH
hPa
Press
MSL
hPa
Rain since
9am
mm
Dir  Spd
km/h
Gust
km/h
Spd
kts
Gust
kts
20/07:30am 21.0 18.2 14.2 65 4.0 NNE 22 33 12 18 1021.5 1020.3 0.2
20/07:00am 20.3 18.4 14.2 68 3.6 NNE 17 22 9 12 1021.4 1020.2 0.2
20/06:30am 18.7 17.1 14.0 74 2.7 NNE 15 20 8 11 1021.4 1020.2 0.2
20/06:00am 17.4 16.6 13.9 80 2.0 NE 11 15 6 8 1021.2 1020.0 0.2
20/05:30am 16.6 15.7 13.7 83 1.7 NE 11 17 6 9 1020.8 1019.5 0.2
20/05:00am 17.0 15.3 13.7 81 1.9 NNE 15 19 8 10 1020.7 1019.4 0.2
20/04:30am 17.4 15.7 13.7 79 2.1 NNE 15 22 8 12 1020.6 1019.3 0.2
20/04:00am 17.8 16.1 13.7 77 2.4 NE 15 20 8 11 1020.2 1019.0 0.2
20/03:30am 18.1 15.6 14.2 78 2.3 NE 20 28 11 15 1020.0 1018.8 0.2
20/03:00am 18.3 15.6 14.6 79 2.2 NE 22 32 12 17 1020.0 1018.8 0.2
20/02:30am 18.3 16.0 14.6 79 2.2 NE 20 30 11 16 1020.2 1019.0 0.2
20/02:00am 18.6 16.4 14.3 76 2.5 NNE 19 24 10 13 1020.6 1019.3 0.2
20/01:30am 19.2 16.7 14.0 72 3.0 NNE 20 28 11 15 1020.6 1019.3 0.2
20/01:00am 19.4 17.5 14.2 72 3.0 NE 17 24 9 13 1020.7 1019.4 0.2
20/12:30am 19.4 17.6 14.4 73 2.9 NE 17 22 9 12 1021.1 1019.9 0.2
20/12:00am 19.8 17.6 14.8 73 3.0 NE 20 28 11 15 1021.5 1020.3 0.2
 
Date/Time
EST
Temp
°C
App
Temp
°C
Dew
Point
°C
Rel
Hum
%
Delta-T
°C
Wind Press
QNH
hPa
Press
MSL
hPa
Rain since
9am
mm
Dir  Spd
km/h
Gust
km/h
Spd
kts
Gust
kts
19/11:30pm 19.9 18.3 14.9 73 3.0 NE 17 24 9 13 1021.7 1020.5 0.2
19/11:00pm 20.3 18.7 14.9 71 3.2 NNE 17 22 9 12 1021.9 1020.7 0.2
19/10:30pm 20.4 19.3 15.2 72 3.1 NE 15 19 8 10 1022.1 1020.9 0.2
19/10:00pm 19.6 19.2 15.3 76 2.6 NE 11 15 6 8 1022.1 1020.9 0.2
19/09:30pm 20.0 20.0 15.2 74 2.9 NNE 9 13 5 7 1022.2 1021.0 0.2
19/09:00pm 20.6 20.4 15.6 73 3.0 NE 11 13 6 7 1022.2 1021.0 0.2
19/08:30pm 21.3 21.6 16.0 72 3.2 NE 9 11 5 6 1022.1 1020.9 0.2
19/08:00pm 21.4 21.3 15.9 71 3.3 NNE 11 13 6 7 1022.0 1020.8 0.2
19/07:30pm 21.8 21.9 15.6 68 3.8 NNE 9 11 5 6 1021.7 1020.5 0.2
19/07:00pm 22.9 22.6 15.5 63 4.5 NNE 11 17 6 9 1021.5 1020.3 0.2
19/06:30pm 23.9 23.1 15.1 58 5.3 NNE 13 15 7 8 1021.3 1020.1 0.2
19/06:00pm 24.3 23.3 14.7 55 5.8 NNE 13 19 7 10 1021.0 1019.8 0.2
19/05:30pm 24.9 24.2 14.4 52 6.3 NNE 11 17 6 9 1020.7 1019.4 0.2
19/05:00pm 25.5 24.1 14.6 51 6.6 NE 15 20 8 11 1020.4 1019.2 0.2
19/04:30pm 25.7 23.4 14.2 49 6.9 NNE 19 26 10 14 1020.3 1019.1 0.2
19/04:00pm 25.9 23.6 14.7 50 6.8 NNE 20 28 11 15 1020.3 1019.1 0.2
19/03:30pm 26.6 24.4 14.4 47 7.4 NE 19 26 10 14 1020.2 1019.0 0.2
19/03:00pm 26.6 24.1 14.0 46 7.6 ENE 20 28 11 15 1020.2 1019.0 0.2
19/02:30pm 27.0 24.8 14.4 46 7.6 ENE 19 28 10 15 1020.6 1019.3 0.2
19/02:00pm 27.2 24.6 14.9 47 7.5 ENE 22 28 12 15 1020.8 1019.5 0.2
19/01:30pm 27.4 25.4 15.4 48 7.4 ENE 20 26 11 14 1021.2 1020.0 0.2
19/01:00pm 27.1 24.9 14.8 47 7.5 ENE 20 30 11 16 1021.5 1020.3 0.2
19/12:30pm 27.4 25.4 15.4 48 7.4 ENE 20 28 11 15 1021.9 1020.7 0.2
19/12:00pm 26.5 23.7 14.3 47 7.4 NE 22 30 12 16 1022.1 1020.9 0.2
19/11:30am 26.3 24.3 15.4 51 6.7 NE 20 30 11 16 1022.5 1021.3 0.2
19/11:00am 25.0 22.0 14.8 53 6.2 NE 24 37 13 20 1022.8 1021.6 0.2
19/10:30am 24.8 22.1 15.7 57 5.6 NE 24 32 13 17 1023.2 1022.0 0.2
19/10:00am 23.7 20.7 14.9 57 5.3 ENE 24 32 13 17 1023.3 1022.1 0.0
19/09:30am 23.2 20.4 15.3 61 4.8 NE 24 33 13 18 1023.5 1022.3 0.0
19/09:00am 22.6 19.3 15.0 62 4.6 ENE 26 35 14 19 1023.6 1022.4 0.0
19/08:30am 22.1 18.9 15.2 65 4.2 ENE 26 39 14 21 1023.4 1022.2 0.0
19/08:00am 21.2 17.0 14.6 66 3.9 ENE 30 41 16 22 1023.4 1022.2 0.0
19/07:30am 21.0 17.4 15.3 70 3.4 ENE 28 37 15 20 1023.4 1022.2 0.0
19/07:00am 19.9 17.1 15.3 75 2.7 ENE 24 32 13 17 1023.2 1022.0 0.0
19/06:30am 19.4 17.0 15.3 77 2.4 ENE 22 28 12 15 1023.0 1021.8 0.0
19/06:00am 19.0 17.2 15.5 80 2.1 ENE 19 24 10 13 1022.8 1021.6 0.0
19/05:30am 18.9 18.2 15.4 80 2.1 E 13 15 7 8 1022.5 1021.3 0.0
19/05:00am 19.1 18.0 15.4 79 2.2 ENE 15 20 8 11 1022.2 1021.0 0.0
19/04:30am 19.3 18.2 15.2 77 2.4 ENE 15 20 8 11 1022.0 1020.8 0.0
19/04:00am 19.4 17.8 15.1 76 2.5 ENE 17 26 9 14 1021.9 1020.7 0.0
19/03:30am 19.3 18.1 15.0 76 2.6 ENE 15 20 8 11 1021.8 1020.6 0.0
19/03:00am 19.7 18.1 15.1 75 2.7 NE 17 20 9 11 1021.8 1020.6 0.0
19/02:30am 19.8 18.2 15.0 74 2.9 ENE 17 26 9 14 1022.0 1020.8 0.0
19/02:00am 19.9 18.3 15.1 74 2.9 ENE 17 26 9 14 1022.2 1021.0 0.0
19/01:30am 19.9 18.3 14.9 73 3.0 ENE 17 26 9 14 1022.2 1021.0 0.0
19/01:00am 20.0 18.4 15.0 73 3.0 ENE 17 24 9 13 1022.2 1021.0 0.0
19/12:30am 20.1 17.9 14.9 72 3.1 ENE 20 26 11 14 1022.4 1021.2 0.0
19/12:00am 20.1 18.7 15.5 75 2.8 ENE 17 28 9 15 1022.5 1021.3 0.0
 
Date/Time
EST
Temp
°C
App
Temp
°C
Dew
Point
°C
Rel
Hum
%
Delta-T
°C
Wind Press
QNH
hPa
Press
MSL
hPa
Rain since
9am
mm
Dir  Spd
km/h
Gust
km/h
Spd
kts
Gust
kts
18/11:30pm 19.8 19.3 15.9 78 2.4 E 13 17 7 9 1022.5 1021.3 0.0
18/11:00pm 19.9 19.8 16.0 78 2.4 E 11 15 6 8 1022.8 1021.6 0.0
18/10:30pm 20.3 19.9 16.1 77 2.6 E 13 17 7 9 1022.9 1021.7 0.0
18/10:00pm 20.6 20.1 15.8 74 2.9 ENE 13 17 7 9 1022.8 1021.6 0.0
18/09:30pm 21.0 19.7 15.8 72 3.2 ENE 17 20 9 11 1022.8 1021.6 0.0
18/09:00pm 21.4 19.6 15.5 69 3.6 ENE 19 24 10 13 1022.6 1021.4 0.0
18/08:30pm 21.7 19.3 15.5 68 3.7 E 22 28 12 15 1022.1 1020.9 0.0
18/08:00pm 21.5 20.5 16.5 73 3.1 E 17 22 9 12 1021.7 1020.5 0.0
18/07:30pm 21.7 20.2 16.4 72 3.3 E 19 28 10 15 1021.3 1020.1 0.0
18/07:00pm 21.9 20.2 16.2 70 3.5 E 20 28 11 15 1020.9 1019.7 0.0
18/06:30pm 22.2 19.3 16.0 68 3.8 E 26 35 14 19 1020.4 1019.2 0.0
18/06:00pm 22.8 19.1 16.1 66 4.1 E 30 37 16 20 1019.9 1018.7 0.0
18/05:30pm 23.5 21.1 16.5 65 4.3 E 24 33 13 18 1019.3 1018.1 0.0
18/05:00pm 24.0 21.1 16.0 61 4.9 E 26 37 14 20 1019.0 1017.8 0.0
18/04:30pm 24.1 21.6 17.1 65 4.4 ESE 26 35 14 19 1018.6 1017.4 0.0
18/04:00pm 24.1 21.0 16.6 63 4.7 ESE 28 37 15 20 1018.4 1017.2 0.0
18/03:30pm 24.0 22.4 17.5 67 4.1 ESE 22 30 12 16 1018.3 1017.1 0.0
18/03:00pm 24.7 21.1 17.2 63 4.7 E 32 43 17 23 1018.4 1017.2 0.0
18/02:50pm 24.6 21.7 17.1 63 4.7 E 28 44 15 24 1018.5 1017.3 0.0
18/02:30pm 24.4 23.6 17.9 67 4.1 ESE 19 26 10 14 1018.7 1017.5 0.0
18/02:00pm 24.6 22.2 17.3 64 4.6 ESE 26 33 14 18 1018.9 1017.7 0.0
18/01:30pm 24.8 21.6 17.3 63 4.7 ESE 30 41 16 22 1019.0 1017.8 0.0
18/01:00pm 25.3 22.2 17.5 62 4.9 E 30 39 16 21 1019.3 1018.1 0.0
18/12:30pm 23.7 22.0 18.1 71 3.6 E 24 30 13 16 1019.7 1018.5 0.0
18/12:28pm 23.5 22.2 19.0 76 2.9 E 24 30 13 16 1019.7 1018.5 0.0
18/12:18pm 21.8 18.6 18.2 80 2.3 E 32 44 17 24 1019.9 1018.7 0.0
18/12:00pm 24.4 20.7 16.9 63 4.7 E 32 41 17 22 1020.0 1018.8 0.0
18/11:30am 23.9 21.1 17.2 66 4.2 E 28 37 15 20 1020.4 1019.2 0.0
18/11:00am 22.9 19.7 16.4 67 4.0 E 28 35 15 19 1020.8 1019.5 0.0
18/10:30am 23.0 19.0 16.1 65 4.2 E 32 39 17 21 1020.7 1019.4 0.0
18/10:00am 22.4 19.2 16.4 69 3.7 E 28 41 15 22 1021.0 1019.8 0.0
18/09:30am 21.6 18.8 16.3 72 3.2 E 26 37 14 20 1021.3 1020.1 0.0
18/09:00am 21.2 17.9 16.0 72 3.2 E 28 35 15 19 1021.4 1020.2 8.0
18/08:30am 20.8 17.4 15.8 73 3.0 E 28 39 15 21 1021.2 1020.0 8.0
18/08:00am 20.3 17.7 15.9 76 2.7 E 24 32 13 17 1020.9 1019.7 8.0
18/07:30am 19.9 17.2 15.5 76 2.6 E 24 35 13 19 1020.3 1019.1 8.0
18/07:00am 20.1 17.4 15.5 75 2.8 ESE 24 37 13 20 1020.0 1018.8 8.0
18/06:30am 18.9 17.1 15.4 80 2.1 E 19 26 10 14 1019.7 1018.5 8.0
18/06:00am 18.7 16.7 15.4 81 2.0 E 20 30 11 16 1019.5 1018.3 8.0
18/05:30am 18.5 16.6 15.2 81 2.0 ESE 19 30 10 16 1019.1 1017.9 8.0
18/05:00am 18.5 15.6 15.2 81 2.0 ESE 24 32 13 17 1018.7 1017.5 8.0
18/04:30am 18.5 16.1 15.4 82 1.8 ESE 22 30 12 16 1018.4 1017.2 8.0
18/04:00am 18.5 16.5 15.4 82 1.8 ESE 20 28 11 15 1018.5 1017.3 8.0
18/03:30am 18.4 16.6 15.5 83 1.7 ESE 19 28 10 15 1018.4 1017.2 8.0
18/03:00am 18.5 16.5 15.6 83 1.7 ESE 20 28 11 15 1018.4 1017.2 8.0
18/02:30am 18.6 15.9 15.5 82 1.9 ESE 24 32 13 17 1018.4 1017.2 8.0
18/02:00am 18.6 16.9 15.7 83 1.7 ESE 19 28 10 15 1018.5 1017.3 8.0
18/01:30am 18.7 16.4 15.6 82 1.9 ESE 22 26 12 14 1018.8 1017.6 8.0
18/01:00am 18.6 16.9 15.7 83 1.7 ESE 19 28 10 15 1018.9 1017.7 8.0
18/12:30am 18.6 16.7 15.7 83 1.7 ESE 20 28 11 15 1018.8 1017.6 8.0
18/12:00am 18.6 17.3 15.7 83 1.7 ESE 17 20 9 11 1019.2 1018.0 8.0
 
Date/Time
EST
Temp
°C
App
Temp
°C
Dew
Point
°C
Rel
Hum
%
Delta-T
°C
Wind Press
QNH
hPa
Press
MSL
hPa
Rain since
9am
mm
Dir  Spd
km/h
Gust
km/h
Spd
kts
Gust
kts
17/11:30pm 18.8 17.5 15.7 82 1.9 ESE 17 24 9 13 1019.4 1018.2 8.0
17/11:00pm 18.8 17.0 15.9 83 1.7 ESE 20 26 11 14 1019.4 1018.2 8.0
17/10:30pm 19.0 16.3 15.7 81 2.0 ESE 24 32 13 17 1019.6 1018.4 8.0
17/10:00pm 18.9 16.6 15.8 82 1.9 ESE 22 30 12 16 1019.6 1018.4 8.0
17/09:30pm 18.9 16.3 15.8 82 1.9 ESE 24 32 13 17 1019.6 1018.4 8.0
17/09:00pm 18.9 15.9 15.8 82 1.9 ESE 26 35 14 19 1019.4 1018.2 8.0
17/08:30pm 19.1 16.2 16.0 82 1.9 ESE 26 33 14 18 1019.3 1018.1 8.0
17/08:00pm 19.2 16.3 16.1 82 1.9 ESE 26 35 14 19 1018.8 1017.6 8.0
17/07:30pm 18.8 16.9 16.8 88 1.2 ESE 22 30 12 16 1018.4 1017.2 8.0
17/07:25pm 18.7 17.2 16.7 88 1.2 ESE 20 30 11 16 1018.4 1017.2 8.0
17/07:16pm 18.7 16.8 16.7 88 1.2 ESE 22 28 12 15 1018.4 1017.2 8.0
17/07:06pm 18.7 16.8 16.7 88 1.2 ESE 22 32 12 17 1018.2 1017.0 8.0
17/07:00pm 18.7 16.4 16.7 88 1.2 ESE 24 32 13 17 1018.2 1017.0 8.0
17/06:58pm 18.7 16.4 16.7 88 1.2 ESE 24 32 13 17 1018.1 1016.9 8.0
17/06:30pm 18.9 17.5 16.9 88 1.2 SE 20 30 11 16 1017.7 1016.4 7.8
17/06:27pm 18.9 17.5 16.9 88 1.2 SE 20 30 11 16 1017.7 1016.4 7.8
17/06:00pm 19.0 16.8 16.8 87 1.3 ESE 24 33 13 18 1017.4 1016.1 7.8
17/05:30pm 19.1 16.4 16.7 86 1.5 SE 26 37 14 20 1016.8 1015.6 7.8
17/05:00pm 19.1 17.0 17.1 88 1.2 SE 24 33 13 18 1016.4 1015.2 7.8
17/04:30pm 19.2 17.2 17.3 89 1.2 SE 24 30 13 16 1016.1 1014.9 7.4
17/04:23pm 19.2 17.5 17.3 89 1.2 SE 22 32 12 17 1016.1 1014.9 7.4
17/04:00pm 19.1 17.9 17.4 90 1.0 ESE 20 26 11 14 1016.1 1014.9 7.4
17/03:50pm 19.0 17.6 17.1 89 1.2 SE 20 28 11 15 1016.0 1014.8 7.4
17/03:49pm 19.0 17.6 17.1 89 1.2 SE 20 28 11 15 1016.0 1014.8 7.4
17/03:35pm 19.1 18.0 17.4 90 1.0 SE 19 24 10 13 1016.0 1014.8 7.4
17/03:30pm 19.0 17.6 17.1 89 1.2 SE 20 32 11 17 1016.1 1014.9 7.4
17/03:08pm 19.1 18.0 17.4 90 1.0 ESE 19 26 10 14 1016.0 1014.8 7.4
17/03:00pm 19.1 18.1 17.6 91 0.9 SE 19 28 10 15 1016.1 1014.9 7.4
17/02:30pm 18.5 16.7 17.0 91 0.9 SE 22 28 12 15 1016.4 1015.2 6.6
17/02:00pm 18.3 16.9 16.6 90 1.0 SE 19 30 10 16 1016.6 1015.4 6.0
17/01:30pm 18.3 16.7 16.6 90 1.0 SE 20 30 11 16 1017.1 1015.8 5.2
17/01:14pm 18.2 16.2 16.5 90 1.0 SE 22 32 12 17 1017.4 1016.1 4.6
17/01:00pm 18.2 16.8 16.5 90 1.0 SE 19 30 10 16 1017.4 1016.1 4.4
17/12:44pm 18.3 16.9 16.6 90 1.0 SE 19 24 10 13 1017.7 1016.4 3.8
17/12:30pm 17.9 16.4 16.2 90 1.0 SE 19 26 10 14 1017.8 1016.5 3.6
17/12:17pm 18.4 16.8 16.6 89 1.1 SE 20 26 11 14 1018.2 1017.0 1.8
17/12:00pm 18.2 16.7 16.2 88 1.2 SE 19 26 10 14 1018.6 1017.4 1.6
17/11:43am 18.1 16.5 15.9 87 1.3 ESE 19 24 10 13 1018.7 1017.5 1.4
17/11:30am 18.6 17.1 16.4 87 1.3 SE 19 26 10 14 1018.8 1017.6 1.4
17/11:29am 18.6 17.1 16.4 87 1.3 SE 19 26 10 14 1018.8 1017.6 1.4
17/11:06am 18.3 16.1 15.9 86 1.4 ESE 22 33 12 18 1019.1 1017.9 1.2
17/11:00am 18.5 16.9 15.9 85 1.6 ESE 19 26 10 14 1019.1 1017.9 1.2
17/10:30am 18.3 17.3 15.7 85 1.6 SE 15 20 8 11 1019.5 1018.3 0.6
17/10:00am 18.0 16.9 15.4 85 1.5 SE 15 20 8 11 1019.6 1018.4 0.4
17/09:36am 17.8 17.2 15.6 87 1.3 SE 13 19 7 10 1019.7 1018.5 0.4
17/09:30am 17.6 16.9 15.4 87 1.3 ESE 13 17 7 9 1019.7 1018.5 0.4
17/09:07am 17.4 14.2 14.3 82 1.8 ESE 24 35 13 19 1019.7 1018.5 0.2
17/09:00am 18.2 15.5 14.5 79 2.2 ESE 22 35 12 19 1019.7 1018.5 9.6
17/08:30am 18.1 16.7 14.4 79 2.2 SE 15 24 8 13 1019.4 1018.2 9.6
17/08:00am 17.3 16.4 14.8 85 1.5 SE 13 17 7 9 1019.2 1018.0 9.6

Other Formats:

Comma delimited format used in spreadsheet applications
http://www.bom.gov.au/fwo/IDQ60801/IDQ60801.94515.axf

JavaScript Object Notation format (JSON) in row-major order
http://www.bom.gov.au/fwo/IDQ60801/IDQ60801.94515.json